Aeroporto :
LOGIN :

Iscrizione | Disclaimer

   EN    FR    IT 

 










Sommario :    VFR   VFR Marginale   IFR   IFR Intensivo   IFR Molto Intensivo
Visibilità : 
Base nubi : 
>= 8 km
>= 3000ft
5 / 8 km
1000 / 3000 ft
1500m / 5 km
500 / 1000 ft
800 / 1500m
200 / 500 ft
< 800m
< 200 ft
Simboli :   Temporali  Nebbia  Neve Forte  Precipitazioni Forti  Vento > 20 kt
SIGMETs :   Varie  Temporali  Ghiacco  Turbolenza  Onda orograficha  Ceneri Vulcaniche






- Altitudine del aeroporto : 1475 ft


LSZC - Buochs Stans

ULTIMO METAR :
  • 162320Z AUTO VRB01KT 9999 BKN100 BKN110 17/13 Q1015

METARs OBSOLETI :
  • 162250Z AUTO 26003KT 230V300 9999 BKN100 16/13 Q1014
  • 162220Z AUTO 22005KT 9999 FEW070 OVC110 17/13 Q1014
  • 162150Z AUTO 25004KT 220V290 9999 FEW075 SCT100 BKN120 17/13 Q1014
  • 162120Z AUTO 26004KT 9999 BKN070 17/13 Q1014
  • 162050Z AUTO 28003KT 9999 NCD 17/13 Q1014
  • 162020Z AUTO VRB01KT 9999 NCD 17/13 Q1013
  • 161950Z AUTO VRB02KT 9999 FEW120 18/13 Q1013
  • 161920Z AUTO VRB02KT 9999 FEW120 19/13 Q1013
  • 161850Z AUTO 12003KT 9999 FEW120 //////TCU 20/13 Q1012

Previsioni scadute.



MetMap, La meteo Aeronautica in un colpo d'occhio ! - Copyright ORBIFLY Dicembre 2007 - Disclaimer

ORBIFLY MET'MAP TEAM :

Programmazione e sviluppo : Alexandra Zaïnal
Concezione : Baudouin d'Aumeries
Supporto tecnico e logistico : Manuel Goepfert
Aiuto : Marc-Olivier Méhu
Aiuto per la traduzione : Arnaldo La Scala




FONTI E CREDITI :

   NOAA